createdAt,value
2022-08-28T00:19:53.223Z,9.54
2022-08-28T00:34:37.441Z,10.53
2022-08-28T01:20:06.047Z,10.98
2022-08-28T01:34:58.017Z,10.72
2022-08-28T01:49:49.834Z,10.17
2022-08-28T02:04:43.344Z,9.78
2022-08-28T02:19:35.435Z,9.66
2022-08-28T02:34:26.242Z,9.13
2022-08-28T02:49:17.872Z,9.98
2022-08-28T03:04:10.159Z,9.60
2022-08-28T03:19:02.191Z,10.30
2022-08-28T03:48:46.289Z,11.62
2022-08-28T04:03:38.744Z,10.84
2022-08-28T04:18:31.660Z,10.42
2022-08-28T04:33:23.821Z,9.81
2022-08-28T04:48:15.596Z,9.80
2022-08-28T05:03:06.716Z,9.04
2022-08-28T05:17:59.042Z,8.60
2022-08-28T05:32:50.754Z,8.73
2022-08-28T05:47:42.631Z,8.68
2022-08-28T06:02:36.276Z,7.20
2022-08-28T06:17:31.476Z,6.06
2022-08-28T06:32:23.947Z,6.30
2022-08-28T06:47:15.389Z,5.59
2022-08-28T07:02:07.982Z,5.58
2022-08-28T07:16:59.539Z,6.00
2022-08-28T07:31:51.516Z,5.70
2022-08-28T07:46:43.132Z,6.10
2022-08-28T08:01:37.650Z,6.15
2022-08-28T08:16:31.618Z,6.72
2022-08-28T08:31:28.594Z,6.78
2022-08-28T08:46:24.125Z,7.31
2022-08-28T09:01:34.294Z,7.43
2022-08-28T09:16:31.479Z,7.33
2022-08-28T09:31:29.183Z,6.35
2022-08-28T09:46:25.317Z,7.30
2022-08-28T10:01:28.056Z,6.54
2022-08-28T10:16:27.772Z,6.45
2022-08-28T10:31:35.436Z,7.04
2022-08-28T10:46:47.549Z,5.76
2022-08-28T11:17:01.018Z,5.76
2022-08-28T11:31:56.345Z,6.01
2022-08-28T11:46:49.592Z,5.64
2022-08-28T12:01:41.561Z,5.78
2022-08-28T12:17:00.942Z,5.94
2022-08-28T12:32:13.353Z,5.74
2022-08-28T12:47:09.977Z,5.78
2022-08-28T13:02:04.718Z,5.25
2022-08-28T13:17:01.222Z,6.03
2022-08-28T13:31:56.213Z,5.66
2022-08-28T13:46:52.342Z,5.11
2022-08-28T14:02:03.720Z,5.07
2022-08-28T14:16:59.122Z,5.68
2022-08-28T14:31:52.490Z,5.39
2022-08-28T14:46:45.251Z,4.58
2022-08-28T15:01:40.641Z,5.46
2022-08-28T15:16:31.619Z,5.20
2022-08-28T15:31:25.627Z,4.56
2022-08-28T15:46:17.241Z,4.88
2022-08-28T16:01:06.725Z,4.83
2022-08-28T16:15:57.540Z,4.97
2022-08-28T16:30:49.061Z,4.58
2022-08-28T16:45:41.381Z,4.38
2022-08-28T17:00:32.950Z,4.24
2022-08-28T17:30:49.691Z,4.21
2022-08-28T17:45:41.117Z,4.30
2022-08-28T18:00:35.763Z,3.94
2022-08-28T18:15:26.723Z,3.94
2022-08-28T19:00:52.968Z,3.80
2022-08-28T19:15:44.552Z,3.91
2022-08-28T19:30:35.810Z,4.05
2022-08-28T19:45:26.636Z,4.59
2022-08-28T20:15:11.018Z,5.22
2022-08-28T20:30:07.148Z,4.30
2022-08-28T20:44:53.558Z,4.53
2022-08-28T20:59:45.591Z,4.39
2022-08-28T21:14:37.139Z,4.06
2022-08-28T21:29:28.787Z,4.46
2022-08-28T21:59:11.185Z,5.61
2022-08-28T22:28:54.998Z,6.06
2022-08-28T22:43:49.929Z,6.25
2022-08-28T22:58:42.625Z,5.64
2022-08-28T23:13:33.710Z,5.12
2022-08-28T23:28:24.755Z,5.07
2022-08-28T23:43:16.198Z,6.12
2022-08-28T23:58:07.504Z,5.12
